createdAt,value
2018-04-26T00:00:16.353Z,93.50
2018-04-26T00:02:43.801Z,93.50
2018-04-26T00:05:11.358Z,93.50
2018-04-26T00:07:38.865Z,92.60
2018-04-26T00:10:06.380Z,93.70
2018-04-26T00:12:33.849Z,93.20
2018-04-26T00:15:01.304Z,92.60
2018-04-26T00:17:28.766Z,92.20
2018-04-26T00:19:56.309Z,92.00
2018-04-26T00:22:23.770Z,91.90
2018-04-26T00:24:51.212Z,92.30
2018-04-26T00:27:18.689Z,91.60
2018-04-26T00:29:46.158Z,91.80
2018-04-26T00:32:13.623Z,91.80
2018-04-26T00:34:41.079Z,91.60
2018-04-26T00:37:08.572Z,92.10
2018-04-26T00:39:36.790Z,91.90
2018-04-26T00:42:04.252Z,91.90
2018-04-26T00:44:31.732Z,92.50
2018-04-26T00:46:59.934Z,92.80
2018-04-26T00:49:28.176Z,93.10
2018-04-26T00:52:01.630Z,93.10
2018-04-26T00:54:29.098Z,92.80
2018-04-26T00:56:56.563Z,92.70
2018-04-26T00:59:24.017Z,93.10
2018-04-26T01:01:51.466Z,93.50
2018-04-26T01:04:18.920Z,93.10
2018-04-26T01:06:46.376Z,93.40
2018-04-26T01:09:13.819Z,93.20
2018-04-26T01:11:41.304Z,93.60
2018-04-26T01:14:08.752Z,93.50
2018-04-26T01:16:36.221Z,93.90
2018-04-26T01:19:03.669Z,93.90
2018-04-26T01:21:31.157Z,93.70
2018-04-26T01:23:58.626Z,93.80
2018-04-26T01:26:26.090Z,93.80
2018-04-26T01:28:54.430Z,94.10
2018-04-26T01:31:21.868Z,94.10
2018-04-26T01:33:49.433Z,94.60
2018-04-26T01:36:28.981Z,94.30
2018-04-26T01:38:56.460Z,94.50
2018-04-26T01:41:23.904Z,94.60
2018-04-26T01:43:51.451Z,94.80
2018-04-26T01:46:18.940Z,94.70
2018-04-26T01:48:47.280Z,94.90
2018-04-26T01:51:14.748Z,95.50
2018-04-26T01:53:42.206Z,95.30
2018-04-26T01:56:09.664Z,95.30
2018-04-26T01:58:37.152Z,95.60
2018-04-26T02:01:04.615Z,95.60
2018-04-26T02:03:32.060Z,95.30
2018-04-26T02:05:59.559Z,96.20
2018-04-26T02:08:27.767Z,96.10
2018-04-26T02:10:55.244Z,96.00
2018-04-26T02:13:22.767Z,96.50
2018-04-26T02:15:50.239Z,96.60
2018-04-26T02:18:18.576Z,96.40
2018-04-26T02:20:46.809Z,96.90
2018-04-26T02:23:14.273Z,96.90
2018-04-26T02:25:41.740Z,97.00
2018-04-26T02:28:09.201Z,97.20
2018-04-26T02:30:36.660Z,97.30
2018-04-26T02:33:04.103Z,97.20
2018-04-26T02:35:31.578Z,97.60
2018-04-26T02:37:59.044Z,97.60
2018-04-26T02:40:27.258Z,97.80
2018-04-26T02:42:54.745Z,97.70
2018-04-26T02:45:22.207Z,98.20
2018-04-26T02:47:49.730Z,98.00
2018-04-26T02:50:17.620Z,98.00
2018-04-26T02:52:45.065Z,98.60
2018-04-26T02:55:12.535Z,98.10
2018-04-26T02:57:40.058Z,98.00
2018-04-26T03:00:07.520Z,98.10
2018-04-26T03:02:34.968Z,98.60
2018-04-26T03:05:02.975Z,98.20
2018-04-26T03:07:30.443Z,97.70
2018-04-26T03:09:57.958Z,98.10
2018-04-26T03:12:25.428Z,97.90
2018-04-26T03:14:52.914Z,97.90
2018-04-26T03:17:20.384Z,97.90
2018-04-26T03:19:47.850Z,97.70
2018-04-26T03:22:16.074Z,97.90
2018-04-26T03:24:43.514Z,97.90
2018-04-26T03:27:10.984Z,97.90
2018-04-26T03:29:38.530Z,98.20
2018-04-26T03:32:05.987Z,98.10
2018-04-26T03:34:33.454Z,98.30
2018-04-26T03:37:00.946Z,98.30
2018-04-26T03:39:28.515Z,98.20
2018-04-26T03:41:55.980Z,98.60
2018-04-26T03:44:23.454Z,98.60
2018-04-26T03:46:51.751Z,98.70
2018-04-26T03:49:19.406Z,98.70
2018-04-26T03:51:46.846Z,98.80
2018-04-26T03:54:15.074Z,99.00
2018-04-26T03:56:42.542Z,98.90
2018-04-26T03:59:09.979Z,99.20
2018-04-26T04:01:49.344Z,99.30
2018-04-26T04:04:28.744Z,99.30
2018-04-26T04:06:56.211Z,99.40
2018-04-26T04:09:23.649Z,99.40
2018-04-26T04:11:51.104Z,99.40
2018-04-26T04:14:18.570Z,99.60
2018-04-26T04:16:46.218Z,99.70
2018-04-26T04:19:14.560Z,99.60
2018-04-26T04:21:42.793Z,99.90
2018-04-26T04:24:10.263Z,99.90
2018-04-26T04:26:37.733Z,99.90
2018-04-26T04:29:06.138Z,99.90
2018-04-26T04:31:34.385Z,99.90
2018-04-26T04:34:01.829Z,99.90
2018-04-26T04:36:29.317Z,99.90
2018-04-26T04:38:57.548Z,99.90
2018-04-26T04:41:25.084Z,99.90
2018-04-26T04:43:52.556Z,99.90
2018-04-26T04:46:20.018Z,99.90
2018-04-26T04:48:47.491Z,99.90
2018-04-26T04:51:15.016Z,99.90
2018-04-26T04:53:42.471Z,99.90
2018-04-26T04:56:09.936Z,99.90
2018-04-26T04:58:37.486Z,99.90
2018-04-26T05:01:05.046Z,99.90
2018-04-26T05:03:32.503Z,99.90
2018-04-26T05:05:59.979Z,99.90
2018-04-26T05:08:27.425Z,99.90
2018-04-26T05:10:54.889Z,99.90
2018-04-26T05:13:22.336Z,99.90
2018-04-26T05:15:49.811Z,99.90
2018-04-26T05:18:17.268Z,99.90
2018-04-26T05:20:44.725Z,99.90
2018-04-26T05:23:12.210Z,99.90
2018-04-26T05:25:39.799Z,99.90
2018-04-26T05:28:07.201Z,99.90
2018-04-26T05:30:34.632Z,99.90
2018-04-26T05:33:02.122Z,99.90
2018-04-26T05:35:29.588Z,99.90
2018-04-26T05:37:57.026Z,99.90
2018-04-26T05:40:24.503Z,99.90
2018-04-26T05:42:51.978Z,99.90
2018-04-26T05:45:20.225Z,99.90
2018-04-26T05:47:47.685Z,99.90
2018-04-26T05:50:15.155Z,99.90
2018-04-26T05:52:43.425Z,99.90
2018-04-26T05:55:10.863Z,99.90
2018-04-26T05:57:38.322Z,99.90
2018-04-26T06:00:05.787Z,99.90
2018-04-26T06:02:33.261Z,99.90
2018-04-26T06:05:00.702Z,99.90
2018-04-26T06:07:28.176Z,99.90
2018-04-26T06:09:56.521Z,99.90
2018-04-26T06:12:24.023Z,99.90
2018-04-26T06:14:52.236Z,99.90
2018-04-26T06:17:19.678Z,99.90
2018-04-26T06:19:47.136Z,99.90
2018-04-26T06:22:14.602Z,99.90
2018-04-26T06:24:42.069Z,99.90
2018-04-26T06:27:09.525Z,99.90
2018-04-26T06:29:37.010Z,99.90
2018-04-26T06:32:04.455Z,99.90
2018-04-26T06:34:31.933Z,99.90
2018-04-26T06:36:59.388Z,99.90
2018-04-26T06:39:26.951Z,99.90
2018-04-26T06:41:54.544Z,99.90
2018-04-26T06:44:22.000Z,99.90
2018-04-26T06:46:49.463Z,99.90
2018-04-26T06:49:17.409Z,99.90
2018-04-26T06:51:45.622Z,99.90
2018-04-26T06:54:13.093Z,99.90
2018-04-26T06:56:40.654Z,99.90
2018-04-26T06:59:08.097Z,99.90
2018-04-26T07:01:35.578Z,99.90
2018-04-26T07:04:03.666Z,99.90
2018-04-26T07:06:31.144Z,99.90
2018-04-26T07:08:59.408Z,99.70
2018-04-26T07:11:26.879Z,99.70
2018-04-26T07:13:55.095Z,99.60
2018-04-26T07:16:22.549Z,99.60
2018-04-26T07:18:49.981Z,99.20
2018-04-26T07:21:17.503Z,97.20
2018-04-26T07:23:44.959Z,96.80
2018-04-26T07:26:12.444Z,98.20
2018-04-26T07:28:40.668Z,96.10
2018-04-26T07:31:08.129Z,96.10
2018-04-26T07:33:35.609Z,97.40
2018-04-26T07:36:03.051Z,95.90
2018-04-26T07:38:30.624Z,95.60
2018-04-26T07:40:58.095Z,95.60
2018-04-26T07:43:26.332Z,95.50
2018-04-26T07:45:53.895Z,95.10
2018-04-26T07:48:22.371Z,95.10
2018-04-26T07:50:49.815Z,94.60
2018-04-26T07:53:17.379Z,94.20
2018-04-26T07:55:45.558Z,97.10
2018-04-26T07:58:13.189Z,97.00
2018-04-26T08:00:40.638Z,98.70
2018-04-26T08:03:08.114Z,99.50
2018-04-26T08:05:35.614Z,99.90
2018-04-26T08:08:03.084Z,99.50
2018-04-26T08:10:31.295Z,99.00
2018-04-26T08:12:58.789Z,98.90
2018-04-26T08:15:26.260Z,97.50
2018-04-26T08:17:55.243Z,99.10
2018-04-26T08:20:22.721Z,99.00
2018-04-26T08:22:50.991Z,99.90
2018-04-26T08:25:18.494Z,99.90
2018-04-26T08:27:45.993Z,99.90
2018-04-26T08:30:13.461Z,99.90
2018-04-26T08:32:40.968Z,99.90
2018-04-26T08:35:08.465Z,99.90
2018-04-26T08:37:35.924Z,99.90
2018-04-26T08:40:03.402Z,99.70
2018-04-26T08:42:31.610Z,98.40
2018-04-26T08:44:59.122Z,98.40
2018-04-26T08:47:26.586Z,98.50
2018-04-26T08:49:54.851Z,98.20
2018-04-26T08:52:22.431Z,98.20
2018-04-26T08:54:49.811Z,98.60
2018-04-26T08:57:17.273Z,98.00
2018-04-26T08:59:44.811Z,97.50
2018-04-26T09:02:12.223Z,96.60
2018-04-26T09:04:39.690Z,95.10
2018-04-26T09:07:07.189Z,93.30
2018-04-26T09:09:34.645Z,94.50
2018-04-26T09:12:02.215Z,91.90
2018-04-26T09:14:29.671Z,93.80
2018-04-26T09:16:57.139Z,94.10
2018-04-26T09:19:24.613Z,95.20
2018-04-26T09:21:52.106Z,95.50
2018-04-26T09:24:20.326Z,94.60
2018-04-26T09:26:47.780Z,94.50
2018-04-26T09:29:15.235Z,92.30
2018-04-26T09:31:42.679Z,91.00
2018-04-26T09:34:10.164Z,90.60
2018-04-26T09:36:37.639Z,90.10
2018-04-26T09:39:05.101Z,90.30
2018-04-26T09:41:32.548Z,92.70
2018-04-26T09:44:00.131Z,94.30
2018-04-26T09:46:27.583Z,91.50
2018-04-26T09:48:55.068Z,88.20
2018-04-26T09:51:23.320Z,83.40
2018-04-26T09:53:50.926Z,83.30
2018-04-26T09:56:18.413Z,77.60
2018-04-26T09:58:45.892Z,76.50
2018-04-26T10:01:13.360Z,75.00
2018-04-26T10:03:41.570Z,82.80
2018-04-26T10:06:26.863Z,82.40
2018-04-26T10:08:54.436Z,79.20
2018-04-26T10:11:22.213Z,80.30
2018-04-26T10:13:50.465Z,70.70
2018-04-26T10:16:17.972Z,70.70
2018-04-26T10:18:46.190Z,70.20
2018-04-26T10:21:13.743Z,70.20
2018-04-26T10:23:41.135Z,70.40
2018-04-26T10:26:08.645Z,68.90
2018-04-26T10:28:36.111Z,68.50
2018-04-26T10:31:03.579Z,73.50
2018-04-26T10:33:31.029Z,73.60
2018-04-26T10:35:58.475Z,72.30
2018-04-26T10:38:25.942Z,79.40
2018-04-26T10:40:53.371Z,80.30
2018-04-26T10:43:20.838Z,85.30
2018-04-26T10:45:48.312Z,86.50
2018-04-26T10:48:15.860Z,86.80
2018-04-26T10:50:43.296Z,87.90
2018-04-26T10:53:10.754Z,88.80
2018-04-26T10:55:38.285Z,84.00
2018-04-26T10:58:05.752Z,79.20
2018-04-26T11:00:34.009Z,75.50
2018-04-26T11:03:01.451Z,75.30
2018-04-26T11:05:28.979Z,65.00
2018-04-26T11:07:56.456Z,67.30
2018-04-26T11:10:23.898Z,66.60
2018-04-26T11:12:51.356Z,70.10
2018-04-26T11:15:18.934Z,74.60
2018-04-26T11:17:46.422Z,80.20
2018-04-26T11:20:13.958Z,80.60
2018-04-26T11:22:41.427Z,84.50
2018-04-26T11:25:08.905Z,84.00
2018-04-26T11:27:37.160Z,79.20
2018-04-26T11:30:04.624Z,79.10
2018-04-26T11:32:32.147Z,67.00
2018-04-26T11:34:59.597Z,68.50
2018-04-26T11:37:27.050Z,69.20
2018-04-26T11:39:54.514Z,69.00
2018-04-26T11:42:22.058Z,75.00
2018-04-26T11:44:49.496Z,75.40
2018-04-26T11:47:17.006Z,77.50
2018-04-26T11:49:44.491Z,77.30
2018-04-26T11:52:12.091Z,73.40
2018-04-26T11:54:39.558Z,66.10
2018-04-26T11:57:07.000Z,71.30
2018-04-26T11:59:34.443Z,70.40
2018-04-26T12:02:01.926Z,71.70
2018-04-26T12:04:29.385Z,73.80
2018-04-26T12:06:56.852Z,78.10
2018-04-26T12:09:24.303Z,87.00
2018-04-26T12:11:51.756Z,91.00
2018-04-26T12:14:19.202Z,90.00
2018-04-26T12:16:46.667Z,83.30
2018-04-26T12:19:14.114Z,74.30
2018-04-26T12:21:41.576Z,68.40
2018-04-26T12:24:09.080Z,64.90
2018-04-26T12:26:36.475Z,69.60
2018-04-26T12:29:03.941Z,72.50
2018-04-26T12:31:31.403Z,73.70
2018-04-26T12:33:58.857Z,65.00
2018-04-26T12:36:26.320Z,63.30
2018-04-26T12:38:53.788Z,58.80
2018-04-26T12:41:21.244Z,58.70
2018-04-26T12:43:48.718Z,60.10
2018-04-26T12:46:16.155Z,58.70
2018-04-26T12:48:43.633Z,57.90
2018-04-26T12:51:11.099Z,57.10
2018-04-26T12:53:38.533Z,57.60
2018-04-26T12:56:06.010Z,60.40
2018-04-26T12:58:33.606Z,63.10
2018-04-26T13:01:01.000Z,63.30
2018-04-26T13:03:28.433Z,60.30
2018-04-26T13:05:55.889Z,61.60
2018-04-26T13:08:23.360Z,57.00
2018-04-26T13:10:50.912Z,60.10
2018-04-26T13:13:18.363Z,62.00
2018-04-26T13:15:45.803Z,63.80
2018-04-26T13:18:13.265Z,64.90
2018-04-26T13:20:40.751Z,59.70
2018-04-26T13:23:08.308Z,63.40
2018-04-26T13:25:35.767Z,63.20
2018-04-26T13:28:03.264Z,66.20
2018-04-26T13:30:30.821Z,58.70
2018-04-26T13:32:58.364Z,55.80
2018-04-26T13:35:25.836Z,55.40
2018-04-26T13:37:53.309Z,56.20
2018-04-26T13:40:22.083Z,56.00
2018-04-26T13:42:49.729Z,56.20
2018-04-26T13:45:17.210Z,59.20
2018-04-26T13:47:45.460Z,54.90
2018-04-26T13:50:12.948Z,54.80
2018-04-26T13:52:41.193Z,54.20
2018-04-26T13:55:08.634Z,54.10
2018-04-26T13:57:36.131Z,57.10
2018-04-26T14:00:04.383Z,56.10
2018-04-26T14:02:31.831Z,56.10
2018-04-26T14:05:00.196Z,59.30
2018-04-26T14:07:27.820Z,55.90
2018-04-26T14:09:55.291Z,55.70
2018-04-26T14:12:22.751Z,57.90
2018-04-26T14:14:50.202Z,55.50
2018-04-26T14:17:17.650Z,54.10
2018-04-26T14:19:45.136Z,55.40
2018-04-26T14:22:12.609Z,54.80
2018-04-26T14:24:40.118Z,51.90
2018-04-26T14:27:08.383Z,51.90
2018-04-26T14:29:37.424Z,52.20
2018-04-26T14:32:05.622Z,55.80
2018-04-26T14:34:33.063Z,55.60
2018-04-26T14:37:00.520Z,54.60
2018-04-26T14:39:27.990Z,56.60
2018-04-26T14:41:55.475Z,55.60
2018-04-26T14:44:23.717Z,53.80
2018-04-26T14:46:51.190Z,53.70
2018-04-26T14:49:18.653Z,55.70
2018-04-26T14:51:46.115Z,56.30
2018-04-26T14:54:13.617Z,57.90
2018-04-26T14:56:41.085Z,57.70
2018-04-26T14:59:08.540Z,60.40
2018-04-26T15:01:36.008Z,60.70
2018-04-26T15:04:03.475Z,62.50
2018-04-26T15:06:30.930Z,64.30
2018-04-26T15:08:58.403Z,69.80
2018-04-26T15:11:25.861Z,70.10
2018-04-26T15:13:53.311Z,70.50
2018-04-26T15:16:20.751Z,68.00
2018-04-26T15:18:48.286Z,66.60
2018-04-26T15:21:15.719Z,62.30
2018-04-26T15:23:43.190Z,61.10
2018-04-26T15:26:10.631Z,65.60
2018-04-26T15:28:38.096Z,64.00
2018-04-26T15:31:05.652Z,61.10
2018-04-26T15:33:33.128Z,65.70
2018-04-26T15:36:00.600Z,61.60
2018-04-26T15:38:28.067Z,60.70
2018-04-26T15:40:55.526Z,62.40
2018-04-26T15:43:23.160Z,64.00
2018-04-26T15:45:50.628Z,66.30
2018-04-26T15:48:18.103Z,64.10
2018-04-26T15:50:52.852Z,65.60
2018-04-26T15:53:32.003Z,64.10
2018-04-26T15:56:11.059Z,67.40
2018-04-26T16:02:06.251Z,67.50
2018-04-26T16:04:46.603Z,69.20
2018-04-26T16:10:47.600Z,71.40
2018-04-26T16:16:46.914Z,67.80
2018-04-26T16:19:32.688Z,67.70
2018-04-26T16:25:40.844Z,74.80
2018-04-26T16:28:26.152Z,76.00
2018-04-26T16:31:11.239Z,74.40
2018-04-26T16:33:50.663Z,68.10
2018-04-26T16:36:30.166Z,76.10
2018-04-26T16:42:03.504Z,77.00
2018-04-26T16:44:30.969Z,70.50
2018-04-26T16:46:58.429Z,68.10
2018-04-26T16:49:25.863Z,67.20
2018-04-26T16:51:53.483Z,66.00
2018-04-26T16:54:21.873Z,63.10
2018-04-26T16:56:49.471Z,63.10
2018-04-26T16:59:17.063Z,67.30
2018-04-26T17:01:45.628Z,77.60
2018-04-26T17:04:13.369Z,77.50
2018-04-26T17:06:40.849Z,79.00
2018-04-26T17:09:08.309Z,80.70
2018-04-26T17:11:35.786Z,81.40
2018-04-26T17:14:03.230Z,82.10
2018-04-26T17:16:30.699Z,81.20
2018-04-26T17:18:58.175Z,80.90
2018-04-26T17:21:25.634Z,81.00
2018-04-26T17:23:53.098Z,81.10
2018-04-26T17:26:20.567Z,79.50
2018-04-26T17:28:48.133Z,79.70
2018-04-26T17:31:15.614Z,79.90
2018-04-26T17:33:43.053Z,78.00
2018-04-26T17:36:10.601Z,81.90
2018-04-26T17:38:38.068Z,80.80
2018-04-26T17:41:05.546Z,79.80
2018-04-26T17:43:33.021Z,79.20
2018-04-26T17:46:00.487Z,82.90
2018-04-26T17:48:27.951Z,79.10
2018-04-26T17:50:56.157Z,80.60
2018-04-26T17:53:23.633Z,80.60
2018-04-26T17:55:51.119Z,82.50
2018-04-26T17:58:18.581Z,83.40
2018-04-26T18:00:46.033Z,82.10
2018-04-26T18:03:13.500Z,83.00
2018-04-26T18:05:40.969Z,84.00
2018-04-26T18:08:09.249Z,81.40
2018-04-26T18:10:37.523Z,83.70
2018-04-26T18:13:04.989Z,83.60
2018-04-26T18:15:32.491Z,85.10
2018-04-26T18:17:59.961Z,85.70
2018-04-26T18:20:27.477Z,86.10
2018-04-26T18:22:54.910Z,86.60
2018-04-26T18:25:22.385Z,86.70
2018-04-26T18:27:49.866Z,88.00
2018-04-26T18:30:17.319Z,88.20
2018-04-26T18:32:44.785Z,88.40
2018-04-26T18:35:12.260Z,88.50
2018-04-26T18:37:39.704Z,89.30
2018-04-26T18:40:07.184Z,90.40
2018-04-26T18:42:34.698Z,90.10
2018-04-26T18:45:02.188Z,90.90
2018-04-26T18:47:29.624Z,90.70
2018-04-26T18:49:57.119Z,90.30
2018-04-26T18:52:24.581Z,87.10
2018-04-26T18:54:52.826Z,91.30
2018-04-26T18:57:20.297Z,91.20
2018-04-26T18:59:47.753Z,90.20
2018-04-26T19:02:15.244Z,89.90
2018-04-26T19:04:43.520Z,90.60
2018-04-26T19:07:11.821Z,90.20
2018-04-26T19:09:39.330Z,90.20
2018-04-26T19:12:06.815Z,87.70
2018-04-26T19:14:35.032Z,85.90
2018-04-26T19:17:02.497Z,85.90
2018-04-26T19:19:29.956Z,85.70
2018-04-26T19:21:57.427Z,85.30
2018-04-26T19:24:24.867Z,86.40
2018-04-26T19:26:52.315Z,86.20
2018-04-26T19:29:19.795Z,85.60
2018-04-26T19:31:47.300Z,85.60
2018-04-26T19:34:14.777Z,86.80
2018-04-26T19:36:42.249Z,88.30
2018-04-26T19:39:09.687Z,87.50
2018-04-26T19:41:37.159Z,87.10
2018-04-26T19:44:04.617Z,88.70
2018-04-26T19:46:32.082Z,90.00
2018-04-26T19:48:59.544Z,90.50
2018-04-26T19:51:27.007Z,91.20
2018-04-26T19:53:54.501Z,90.80
2018-04-26T19:56:21.967Z,90.70
2018-04-26T19:58:49.442Z,92.00
2018-04-26T20:01:16.902Z,91.30
2018-04-26T20:03:44.368Z,91.90
2018-04-26T20:06:11.882Z,91.20
2018-04-26T20:08:39.333Z,91.40
2018-04-26T20:11:07.573Z,92.00
2018-04-26T20:13:35.035Z,92.00
2018-04-26T20:16:02.485Z,90.70
2018-04-26T20:18:30.032Z,90.10
2018-04-26T20:20:57.444Z,90.00
2018-04-26T20:23:24.887Z,91.30
2018-04-26T20:25:53.107Z,91.90
2018-04-26T20:28:20.631Z,91.90
2018-04-26T20:30:48.027Z,92.20
2018-04-26T20:33:15.522Z,92.10
2018-04-26T20:35:42.953Z,91.90
2018-04-26T20:38:10.443Z,92.60
2018-04-26T20:40:37.909Z,92.40
2018-04-26T20:43:06.107Z,92.70
2018-04-26T20:45:33.569Z,92.70
2018-04-26T20:48:01.006Z,92.60
2018-04-26T20:50:28.545Z,92.70
2018-04-26T20:52:55.944Z,93.00
2018-04-26T20:55:23.407Z,93.50
2018-04-26T20:57:50.852Z,93.90
2018-04-26T21:00:18.326Z,94.10
2018-04-26T21:02:45.823Z,93.90
2018-04-26T21:05:13.323Z,94.00
2018-04-26T21:07:41.196Z,93.90
2018-04-26T21:10:08.697Z,94.30
2018-04-26T21:12:37.076Z,94.30
2018-04-26T21:15:04.591Z,94.30
2018-04-26T21:17:32.065Z,94.80
2018-04-26T21:19:59.556Z,94.70
2018-04-26T21:22:27.043Z,95.10
2018-04-26T21:24:55.296Z,95.00
2018-04-26T21:27:22.757Z,95.10
2018-04-26T21:29:50.238Z,95.60
2018-04-26T21:32:17.701Z,95.50
2018-04-26T21:34:45.189Z,95.50
2018-04-26T21:37:12.681Z,95.70
2018-04-26T21:39:40.156Z,95.90
2018-04-26T21:42:08.394Z,95.80
2018-04-26T21:44:36.236Z,95.80
2018-04-26T21:47:03.686Z,95.90
2018-04-26T21:49:30.692Z,96.40
2018-04-26T21:52:04.863Z,96.20
2018-04-26T21:54:37.978Z,96.20
2018-04-26T21:57:11.220Z,96.30
2018-04-26T21:59:44.357Z,96.60
2018-04-26T22:02:17.660Z,96.40
2018-04-26T22:07:47.952Z,96.60
2018-04-26T22:10:15.439Z,96.90
2018-04-26T22:12:42.964Z,96.50
2018-04-26T22:15:10.457Z,96.80
2018-04-26T22:17:37.930Z,96.80
2018-04-26T22:20:05.431Z,97.50
2018-04-26T22:22:32.928Z,97.50
2018-04-26T22:25:00.428Z,97.50
2018-04-26T22:27:28.667Z,97.30
2018-04-26T22:29:56.683Z,97.30
2018-04-26T22:32:24.195Z,97.40
2018-04-26T22:34:51.724Z,97.40
2018-04-26T22:37:19.193Z,97.40
2018-04-26T22:39:46.686Z,97.50
2018-04-26T22:42:14.936Z,97.80
2018-04-26T22:44:43.196Z,97.70
2018-04-26T22:47:10.682Z,98.10
2018-04-26T22:49:38.175Z,97.90
2018-04-26T22:52:05.750Z,97.90
2018-04-26T22:54:33.245Z,97.70
2018-04-26T22:57:00.734Z,97.90
2018-04-26T22:59:28.976Z,97.90
2018-04-26T23:01:56.480Z,97.80
2018-04-26T23:04:23.989Z,97.60
2018-04-26T23:06:51.505Z,97.50
2018-04-26T23:09:19.002Z,97.80
2018-04-26T23:11:46.489Z,97.90
2018-04-26T23:14:14.733Z,97.90
2018-04-26T23:16:42.980Z,97.90
2018-04-26T23:19:10.486Z,97.90
2018-04-26T23:21:37.980Z,98.10
2018-04-26T23:24:05.485Z,97.80
2018-04-26T23:26:32.980Z,98.10
2018-04-26T23:29:01.288Z,98.20
2018-04-26T23:31:28.770Z,98.10
2018-04-26T23:33:56.252Z,98.20
2018-04-26T23:36:23.730Z,98.30
2018-04-26T23:38:52.009Z,98.30
2018-04-26T23:41:20.267Z,98.60
2018-04-26T23:43:47.759Z,98.50
2018-04-26T23:46:15.247Z,98.40
2018-04-26T23:48:42.737Z,98.50
2018-04-26T23:51:10.217Z,98.60
2018-04-26T23:53:38.482Z,98.60
2018-04-26T23:56:06.724Z,98.80
2018-04-26T23:58:34.780Z,98.80
